sensor_id;sensor_type;location;lat;lon;timestamp;P1;durP1;ratioP1;P2;durP2;ratioP2
23206;SDS011;11773;52.570;13.052;2022-09-12T00:01:41;0.30;;;0.30;;
23206;SDS011;11773;52.570;13.052;2022-09-12T00:04:12;0.43;;;0.43;;
23206;SDS011;11773;52.570;13.052;2022-09-12T00:06:42;0.30;;;0.30;;
23206;SDS011;11773;52.570;13.052;2022-09-12T00:09:12;0.23;;;0.23;;
23206;SDS011;11773;52.570;13.052;2022-09-12T00:11:44;0.30;;;0.30;;
23206;SDS011;11773;52.570;13.052;2022-09-12T00:14:15;0.33;;;0.33;;
23206;SDS011;11773;52.570;13.052;2022-09-12T00:16:46;0.30;;;0.30;;
23206;SDS011;11773;52.570;13.052;2022-09-12T00:19:15;0.30;;;0.30;;
23206;SDS011;11773;52.570;13.052;2022-09-12T00:21:45;0.20;;;0.20;;
23206;SDS011;11773;52.570;13.052;2022-09-12T00:24:14;1.00;;;0.30;;
23206;SDS011;11773;52.570;13.052;2022-09-12T00:26:44;0.30;;;0.30;;
23206;SDS011;11773;52.570;13.052;2022-09-12T00:29:19;0.30;;;0.30;;
23206;SDS011;11773;52.570;13.052;2022-09-12T00:31:47;0.30;;;0.30;;
23206;SDS011;11773;52.570;13.052;2022-09-12T00:34:17;0.30;;;0.30;;
23206;SDS011;11773;52.570;13.052;2022-09-12T00:36:46;0.20;;;0.20;;
23206;SDS011;11773;52.570;13.052;2022-09-12T00:39:16;0.30;;;0.30;;
23206;SDS011;11773;52.570;13.052;2022-09-12T00:41:45;0.40;;;0.40;;
23206;SDS011;11773;52.570;13.052;2022-09-12T00:46:52;0.20;;;0.20;;
23206;SDS011;11773;52.570;13.052;2022-09-12T00:49:51;0.20;;;0.20;;
23206;SDS011;11773;52.570;13.052;2022-09-12T00:53:20;0.30;;;0.30;;
23206;SDS011;11773;52.570;13.052;2022-09-12T00:55:16;0.50;;;0.50;;
23206;SDS011;11773;52.570;13.052;2022-09-12T00:58:09;0.37;;;0.37;;
23206;SDS011;11773;52.570;13.052;2022-09-12T01:00:42;0.23;;;0.23;;
23206;SDS011;11773;52.570;13.052;2022-09-12T01:03:14;0.20;;;0.20;;
23206;SDS011;11773;52.570;13.052;2022-09-12T01:08:56;0.30;;;0.30;;
23206;SDS011;11773;52.570;13.052;2022-09-12T01:11:29;0.10;;;0.10;;
23206;SDS011;11773;52.570;13.052;2022-09-12T01:14:06;0.20;;;0.20;;
23206;SDS011;11773;52.570;13.052;2022-09-12T01:16:36;0.30;;;0.30;;
23206;SDS011;11773;52.570;13.052;2022-09-12T01:25:46;0.30;;;0.30;;
23206;SDS011;11773;52.570;13.052;2022-09-12T01:31:16;0.23;;;0.23;;
23206;SDS011;11773;52.570;13.052;2022-09-12T01:36:35;0.23;;;0.23;;
23206;SDS011;11773;52.570;13.052;2022-09-12T01:42:13;0.30;;;0.30;;
23206;SDS011;11773;52.570;13.052;2022-09-12T01:44:48;0.20;;;0.20;;
23206;SDS011;11773;52.570;13.052;2022-09-12T01:47:21;0.20;;;0.20;;
23206;SDS011;11773;52.570;13.052;2022-09-12T01:50:02;0.20;;;0.20;;
23206;SDS011;11773;52.570;13.052;2022-09-12T01:52:42;0.20;;;0.20;;
23206;SDS011;11773;52.570;13.052;2022-09-12T01:55:27;0.23;;;0.23;;
23206;SDS011;11773;52.570;13.052;2022-09-12T01:58:04;0.20;;;0.20;;
23206;SDS011;11773;52.570;13.052;2022-09-12T02:00:41;0.20;;;0.20;;
23206;SDS011;11773;52.570;13.052;2022-09-12T02:03:15;0.10;;;0.10;;
23206;SDS011;11773;52.570;13.052;2022-09-12T02:05:55;0.27;;;0.27;;
23206;SDS011;11773;52.570;13.052;2022-09-12T02:08:37;0.40;;;0.40;;
23206;SDS011;11773;52.570;13.052;2022-09-12T02:11:09;0.50;;;0.50;;
23206;SDS011;11773;52.570;13.052;2022-09-12T02:13:42;0.33;;;0.30;;
23206;SDS011;11773;52.570;13.052;2022-09-12T02:19:16;0.30;;;0.30;;
23206;SDS011;11773;52.570;13.052;2022-09-12T02:21:53;0.20;;;0.20;;
23206;SDS011;11773;52.570;13.052;2022-09-12T02:24:27;0.20;;;0.20;;
23206;SDS011;11773;52.570;13.052;2022-09-12T02:27:02;0.30;;;0.30;;
23206;SDS011;11773;52.570;13.052;2022-09-12T02:29:34;0.30;;;0.30;;
23206;SDS011;11773;52.570;13.052;2022-09-12T02:32:05;0.30;;;0.30;;
23206;SDS011;11773;52.570;13.052;2022-09-12T02:34:58;0.20;;;0.20;;
23206;SDS011;11773;52.570;13.052;2022-09-12T02:37:53;0.20;;;0.20;;
23206;SDS011;11773;52.570;13.052;2022-09-12T02:40:31;0.20;;;0.20;;
23206;SDS011;11773;52.570;13.052;2022-09-12T02:43:03;0.27;;;0.23;;
23206;SDS011;11773;52.570;13.052;2022-09-12T02:45:34;0.30;;;0.30;;
23206;SDS011;11773;52.570;13.052;2022-09-12T02:50:55;0.30;;;0.30;;
23206;SDS011;11773;52.570;13.052;2022-09-12T02:53:25;0.20;;;0.20;;
23206;SDS011;11773;52.570;13.052;2022-09-12T02:55:55;0.30;;;0.30;;
23206;SDS011;11773;52.570;13.052;2022-09-12T02:58:26;0.30;;;0.30;;
23206;SDS011;11773;52.570;13.052;2022-09-12T03:01:12;0.97;;;0.30;;
23206;SDS011;11773;52.570;13.052;2022-09-12T03:04:12;0.40;;;0.40;;
23206;SDS011;11773;52.570;13.052;2022-09-12T03:12:53;0.40;;;0.40;;
23206;SDS011;11773;52.570;13.052;2022-09-12T03:15:50;0.33;;;0.33;;
23206;SDS011;11773;52.570;13.052;2022-09-12T03:24:18;0.20;;;0.20;;
23206;SDS011;11773;52.570;13.052;2022-09-12T03:27:22;0.20;;;0.20;;
23206;SDS011;11773;52.570;13.052;2022-09-12T03:29:58;0.30;;;0.30;;
23206;SDS011;11773;52.570;13.052;2022-09-12T03:32:47;0.20;;;0.20;;
23206;SDS011;11773;52.570;13.052;2022-09-12T03:35:19;0.40;;;0.40;;
23206;SDS011;11773;52.570;13.052;2022-09-12T03:37:51;0.20;;;0.20;;
23206;SDS011;11773;52.570;13.052;2022-09-12T03:40:21;0.20;;;0.20;;
23206;SDS011;11773;52.570;13.052;2022-09-12T03:42:51;0.20;;;0.20;;
23206;SDS011;11773;52.570;13.052;2022-09-12T03:45:20;0.30;;;0.30;;
23206;SDS011;11773;52.570;13.052;2022-09-12T03:47:50;0.30;;;0.30;;
23206;SDS011;11773;52.570;13.052;2022-09-12T03:50:19;0.20;;;0.20;;
23206;SDS011;11773;52.570;13.052;2022-09-12T03:52:49;0.30;;;0.30;;
23206;SDS011;11773;52.570;13.052;2022-09-12T03:55:19;0.50;;;0.50;;
23206;SDS011;11773;52.570;13.052;2022-09-12T03:57:51;0.30;;;0.30;;
23206;SDS011;11773;52.570;13.052;2022-09-12T04:00:22;0.47;;;0.47;;
23206;SDS011;11773;52.570;13.052;2022-09-12T04:02:53;0.33;;;0.33;;
23206;SDS011;11773;52.570;13.052;2022-09-12T04:05:24;0.30;;;0.30;;
23206;SDS011;11773;52.570;13.052;2022-09-12T04:07:54;0.30;;;0.30;;
23206;SDS011;11773;52.570;13.052;2022-09-12T04:10:23;0.40;;;0.40;;
23206;SDS011;11773;52.570;13.052;2022-09-12T04:12:53;0.20;;;0.20;;
23206;SDS011;11773;52.570;13.052;2022-09-12T04:15:22;0.23;;;0.23;;
23206;SDS011;11773;52.570;13.052;2022-09-12T04:17:52;0.40;;;0.40;;
23206;SDS011;11773;52.570;13.052;2022-09-12T04:20:21;0.40;;;0.40;;
23206;SDS011;11773;52.570;13.052;2022-09-12T04:22:51;1.17;;;0.60;;
23206;SDS011;11773;52.570;13.052;2022-09-12T04:25:20;0.20;;;0.20;;
23206;SDS011;11773;52.570;13.052;2022-09-12T04:27:50;0.43;;;0.43;;
23206;SDS011;11773;52.570;13.052;2022-09-12T04:30:19;0.57;;;0.57;;
23206;SDS011;11773;52.570;13.052;2022-09-12T04:32:49;0.40;;;0.40;;
23206;SDS011;11773;52.570;13.052;2022-09-12T04:35:18;0.37;;;0.30;;
23206;SDS011;11773;52.570;13.052;2022-09-12T04:37:48;0.40;;;0.40;;
23206;SDS011;11773;52.570;13.052;2022-09-12T04:40:17;0.33;;;0.33;;
23206;SDS011;11773;52.570;13.052;2022-09-12T04:42:47;0.40;;;0.40;;
23206;SDS011;11773;52.570;13.052;2022-09-12T04:45:16;0.70;;;0.53;;
23206;SDS011;11773;52.570;13.052;2022-09-12T04:47:46;0.40;;;0.40;;
23206;SDS011;11773;52.570;13.052;2022-09-12T04:50:16;0.60;;;0.40;;
23206;SDS011;11773;52.570;13.052;2022-09-12T04:52:49;0.37;;;0.37;;
23206;SDS011;11773;52.570;13.052;2022-09-12T04:55:20;0.30;;;0.30;;
23206;SDS011;11773;52.570;13.052;2022-09-12T04:57:51;0.83;;;0.60;;
23206;SDS011;11773;52.570;13.052;2022-09-12T05:00:20;0.47;;;0.47;;
23206;SDS011;11773;52.570;13.052;2022-09-12T05:02:50;0.50;;;0.50;;
23206;SDS011;11773;52.570;13.052;2022-09-12T05:05:20;0.47;;;0.47;;
23206;SDS011;11773;52.570;13.052;2022-09-12T05:07:49;0.60;;;0.60;;
23206;SDS011;11773;52.570;13.052;2022-09-12T05:10:19;0.40;;;0.40;;
23206;SDS011;11773;52.570;13.052;2022-09-12T05:12:49;0.43;;;0.43;;
23206;SDS011;11773;52.570;13.052;2022-09-12T05:15:19;0.30;;;0.30;;
23206;SDS011;11773;52.570;13.052;2022-09-12T05:17:48;0.50;;;0.50;;
23206;SDS011;11773;52.570;13.052;2022-09-12T05:20:18;0.30;;;0.30;;
23206;SDS011;11773;52.570;13.052;2022-09-12T05:22:47;0.30;;;0.30;;
23206;SDS011;11773;52.570;13.052;2022-09-12T05:25:17;0.60;;;0.60;;
23206;SDS011;11773;52.570;13.052;2022-09-12T05:27:46;0.63;;;0.63;;
23206;SDS011;11773;52.570;13.052;2022-09-12T05:30:19;0.70;;;0.70;;
23206;SDS011;11773;52.570;13.052;2022-09-12T05:32:48;0.50;;;0.30;;
23206;SDS011;11773;52.570;13.052;2022-09-12T05:35:18;0.50;;;0.50;;
23206;SDS011;11773;52.570;13.052;2022-09-12T05:37:47;0.70;;;0.63;;
23206;SDS011;11773;52.570;13.052;2022-09-12T05:40:17;0.50;;;0.50;;
23206;SDS011;11773;52.570;13.052;2022-09-12T05:42:47;0.40;;;0.40;;
23206;SDS011;11773;52.570;13.052;2022-09-12T05:45:16;0.50;;;0.50;;
23206;SDS011;11773;52.570;13.052;2022-09-12T05:47:47;0.60;;;0.60;;
23206;SDS011;11773;52.570;13.052;2022-09-12T05:50:16;0.50;;;0.50;;
23206;SDS011;11773;52.570;13.052;2022-09-12T05:52:46;0.47;;;0.43;;
23206;SDS011;11773;52.570;13.052;2022-09-12T05:55:16;0.70;;;0.70;;
23206;SDS011;11773;52.570;13.052;2022-09-12T05:57:45;0.70;;;0.70;;
23206;SDS011;11773;52.570;13.052;2022-09-12T06:00:15;0.50;;;0.50;;
23206;SDS011;11773;52.570;13.052;2022-09-12T06:02:52;0.60;;;0.60;;
23206;SDS011;11773;52.570;13.052;2022-09-12T06:05:22;0.40;;;0.40;;
23206;SDS011;11773;52.570;13.052;2022-09-12T06:07:52;0.70;;;0.70;;
23206;SDS011;11773;52.570;13.052;2022-09-12T06:10:21;0.57;;;0.57;;
23206;SDS011;11773;52.570;13.052;2022-09-12T06:12:52;0.53;;;0.53;;
23206;SDS011;11773;52.570;13.052;2022-09-12T06:15:21;0.57;;;0.57;;
23206;SDS011;11773;52.570;13.052;2022-09-12T06:17:51;0.40;;;0.40;;
23206;SDS011;11773;52.570;13.052;2022-09-12T06:20:20;0.70;;;0.70;;
23206;SDS011;11773;52.570;13.052;2022-09-12T06:22:52;0.90;;;0.73;;
23206;SDS011;11773;52.570;13.052;2022-09-12T06:25:21;0.83;;;0.83;;
23206;SDS011;11773;52.570;13.052;2022-09-12T06:27:51;0.80;;;0.80;;
23206;SDS011;11773;52.570;13.052;2022-09-12T06:30:20;0.90;;;0.90;;
23206;SDS011;11773;52.570;13.052;2022-09-12T06:32:51;0.73;;;0.73;;
23206;SDS011;11773;52.570;13.052;2022-09-12T06:35:22;1.40;;;1.37;;
23206;SDS011;11773;52.570;13.052;2022-09-12T06:37:52;1.70;;;1.57;;
23206;SDS011;11773;52.570;13.052;2022-09-12T06:40:21;1.53;;;1.43;;
23206;SDS011;11773;52.570;13.052;2022-09-12T06:42:51;1.20;;;1.10;;
23206;SDS011;11773;52.570;13.052;2022-09-12T06:45:20;0.93;;;0.93;;
23206;SDS011;11773;52.570;13.052;2022-09-12T06:47:52;0.90;;;0.90;;
23206;SDS011;11773;52.570;13.052;2022-09-12T06:50:22;0.97;;;0.97;;
23206;SDS011;11773;52.570;13.052;2022-09-12T06:52:52;1.60;;;1.50;;
23206;SDS011;11773;52.570;13.052;2022-09-12T06:55:21;1.40;;;1.30;;
23206;SDS011;11773;52.570;13.052;2022-09-12T06:57:53;1.40;;;1.30;;
23206;SDS011;11773;52.570;13.052;2022-09-12T07:00:22;1.10;;;1.10;;
23206;SDS011;11773;52.570;13.052;2022-09-12T07:02:54;1.00;;;1.00;;
23206;SDS011;11773;52.570;13.052;2022-09-12T07:05:24;0.87;;;0.87;;
23206;SDS011;11773;52.570;13.052;2022-09-12T07:07:54;1.20;;;1.10;;
23206;SDS011;11773;52.570;13.052;2022-09-12T07:10:23;0.93;;;0.93;;
23206;SDS011;11773;52.570;13.052;2022-09-12T07:12:54;1.40;;;1.30;;
23206;SDS011;11773;52.570;13.052;2022-09-12T07:15:24;0.90;;;0.90;;
23206;SDS011;11773;52.570;13.052;2022-09-12T07:17:54;1.20;;;1.10;;
23206;SDS011;11773;52.570;13.052;2022-09-12T07:20:23;1.30;;;1.20;;
23206;SDS011;11773;52.570;13.052;2022-09-12T07:22:53;1.30;;;1.20;;
23206;SDS011;11773;52.570;13.052;2022-09-12T07:25:22;1.50;;;1.40;;
23206;SDS011;11773;52.570;13.052;2022-09-12T07:27:52;1.20;;;1.10;;
23206;SDS011;11773;52.570;13.052;2022-09-12T07:30:22;1.10;;;1.10;;
23206;SDS011;11773;52.570;13.052;2022-09-12T07:32:54;1.43;;;1.33;;
23206;SDS011;11773;52.570;13.052;2022-09-12T07:35:24;1.10;;;1.10;;
23206;SDS011;11773;52.570;13.052;2022-09-12T07:37:53;1.00;;;1.00;;
23206;SDS011;11773;52.570;13.052;2022-09-12T07:40:23;1.00;;;1.00;;
23206;SDS011;11773;52.570;13.052;2022-09-12T07:42:52;1.13;;;1.13;;
23206;SDS011;11773;52.570;13.052;2022-09-12T07:45:22;1.00;;;1.00;;
23206;SDS011;11773;52.570;13.052;2022-09-12T07:47:53;1.40;;;1.30;;
23206;SDS011;11773;52.570;13.052;2022-09-12T07:50:22;1.30;;;1.20;;
23206;SDS011;11773;52.570;13.052;2022-09-12T07:52:53;1.00;;;1.00;;
23206;SDS011;11773;52.570;13.052;2022-09-12T07:55:22;0.93;;;0.93;;
23206;SDS011;11773;52.570;13.052;2022-09-12T07:57:52;0.90;;;0.90;;
23206;SDS011;11773;52.570;13.052;2022-09-12T08:00:21;0.60;;;0.60;;
23206;SDS011;11773;52.570;13.052;2022-09-12T08:02:51;0.90;;;0.90;;
23206;SDS011;11773;52.570;13.052;2022-09-12T08:05:22;0.77;;;0.77;;
23206;SDS011;11773;52.570;13.052;2022-09-12T08:07:52;1.00;;;1.00;;
23206;SDS011;11773;52.570;13.052;2022-09-12T08:10:23;0.70;;;0.70;;
23206;SDS011;11773;52.570;13.052;2022-09-12T08:12:53;0.80;;;0.80;;
23206;SDS011;11773;52.570;13.052;2022-09-12T08:15:22;1.93;;;0.60;;
23206;SDS011;11773;52.570;13.052;2022-09-12T08:17:52;0.80;;;0.80;;
23206;SDS011;11773;52.570;13.052;2022-09-12T08:20:21;0.50;;;0.50;;
23206;SDS011;11773;52.570;13.052;2022-09-12T08:22:52;0.70;;;0.70;;
23206;SDS011;11773;52.570;13.052;2022-09-12T08:25:22;0.60;;;0.50;;
23206;SDS011;11773;52.570;13.052;2022-09-12T08:27:51;0.70;;;0.70;;
23206;SDS011;11773;52.570;13.052;2022-09-12T08:30:21;0.50;;;0.50;;
23206;SDS011;11773;52.570;13.052;2022-09-12T08:32:50;0.50;;;0.50;;
23206;SDS011;11773;52.570;13.052;2022-09-12T08:35:20;0.50;;;0.50;;
23206;SDS011;11773;52.570;13.052;2022-09-12T08:37:49;0.60;;;0.60;;
23206;SDS011;11773;52.570;13.052;2022-09-12T08:40:20;0.80;;;0.57;;
23206;SDS011;11773;52.570;13.052;2022-09-12T08:43:04;0.70;;;0.70;;
23206;SDS011;11773;52.570;13.052;2022-09-12T08:45:46;0.40;;;0.40;;
23206;SDS011;11773;52.570;13.052;2022-09-12T08:48:16;0.43;;;0.43;;
23206;SDS011;11773;52.570;13.052;2022-09-12T08:50:46;0.50;;;0.50;;
23206;SDS011;11773;52.570;13.052;2022-09-12T08:53:17;0.40;;;0.40;;
23206;SDS011;11773;52.570;13.052;2022-09-12T08:55:55;0.43;;;0.43;;
23206;SDS011;11773;52.570;13.052;2022-09-12T08:58:27;0.50;;;0.50;;
23206;SDS011;11773;52.570;13.052;2022-09-12T09:01:04;0.47;;;0.47;;
23206;SDS011;11773;52.570;13.052;2022-09-12T09:10:11;0.30;;;0.30;;
23206;SDS011;11773;52.570;13.052;2022-09-12T09:16:31;0.40;;;0.40;;
23206;SDS011;11773;52.570;13.052;2022-09-12T09:19:05;0.50;;;0.40;;
23206;SDS011;11773;52.570;13.052;2022-09-12T09:21:51;0.43;;;0.30;;
23206;SDS011;11773;52.570;13.052;2022-09-12T09:24:38;0.30;;;0.30;;
23206;SDS011;11773;52.570;13.052;2022-09-12T09:27:17;0.40;;;0.40;;
23206;SDS011;11773;52.570;13.052;2022-09-12T09:30:01;0.40;;;0.40;;
23206;SDS011;11773;52.570;13.052;2022-09-12T09:32:35;0.30;;;0.30;;
23206;SDS011;11773;52.570;13.052;2022-09-12T09:35:11;0.50;;;0.50;;
23206;SDS011;11773;52.570;13.052;2022-09-12T09:40:39;0.30;;;0.30;;
23206;SDS011;11773;52.570;13.052;2022-09-12T09:43:18;0.33;;;0.33;;
23206;SDS011;11773;52.570;13.052;2022-09-12T09:45:55;0.40;;;0.40;;
23206;SDS011;11773;52.570;13.052;2022-09-12T09:48:22;0.60;;;0.60;;
23206;SDS011;11773;52.570;13.052;2022-09-12T09:50:58;0.30;;;0.30;;
23206;SDS011;11773;52.570;13.052;2022-09-12T09:53:36;0.40;;;0.40;;
23206;SDS011;11773;52.570;13.052;2022-09-12T09:56:13;0.50;;;0.50;;
23206;SDS011;11773;52.570;13.052;2022-09-12T09:59:07;0.37;;;0.37;;
23206;SDS011;11773;52.570;13.052;2022-09-12T10:04:32;0.40;;;0.40;;
23206;SDS011;11773;52.570;13.052;2022-09-12T10:07:16;0.30;;;0.30;;
23206;SDS011;11773;52.570;13.052;2022-09-12T10:09:45;0.30;;;0.30;;
23206;SDS011;11773;52.570;13.052;2022-09-12T10:12:37;0.23;;;0.23;;
23206;SDS011;11773;52.570;13.052;2022-09-12T10:15:23;0.37;;;0.37;;
23206;SDS011;11773;52.570;13.052;2022-09-12T10:17:52;0.40;;;0.40;;
23206;SDS011;11773;52.570;13.052;2022-09-12T10:20:42;0.37;;;0.37;;
23206;SDS011;11773;52.570;13.052;2022-09-12T10:23:22;0.40;;;0.40;;
23206;SDS011;11773;52.570;13.052;2022-09-12T10:26:11;0.40;;;0.40;;
23206;SDS011;11773;52.570;13.052;2022-09-12T10:28:48;0.40;;;0.40;;
23206;SDS011;11773;52.570;13.052;2022-09-12T10:31:27;0.30;;;0.30;;
23206;SDS011;11773;52.570;13.052;2022-09-12T10:34:05;0.30;;;0.30;;
23206;SDS011;11773;52.570;13.052;2022-09-12T10:36:37;0.30;;;0.30;;
23206;SDS011;11773;52.570;13.052;2022-09-12T10:39:11;0.53;;;0.40;;
23206;SDS011;11773;52.570;13.052;2022-09-12T10:41:41;0.30;;;0.30;;
23206;SDS011;11773;52.570;13.052;2022-09-12T10:44:16;0.50;;;0.50;;
23206;SDS011;11773;52.570;13.052;2022-09-12T10:46:45;0.30;;;0.30;;
23206;SDS011;11773;52.570;13.052;2022-09-12T10:49:22;0.40;;;0.40;;
23206;SDS011;11773;52.570;13.052;2022-09-12T10:52:14;0.40;;;0.40;;
23206;SDS011;11773;52.570;13.052;2022-09-12T10:54:46;0.50;;;0.50;;
23206;SDS011;11773;52.570;13.052;2022-09-12T11:00:20;0.30;;;0.30;;
23206;SDS011;11773;52.570;13.052;2022-09-12T11:05:52;0.30;;;0.30;;
23206;SDS011;11773;52.570;13.052;2022-09-12T11:14:38;0.50;;;0.50;;
23206;SDS011;11773;52.570;13.052;2022-09-12T11:17:26;0.50;;;0.50;;
23206;SDS011;11773;52.570;13.052;2022-09-12T11:22:59;0.30;;;0.30;;
23206;SDS011;11773;52.570;13.052;2022-09-12T11:25:38;0.20;;;0.20;;
23206;SDS011;11773;52.570;13.052;2022-09-12T11:28:23;0.40;;;0.40;;
23206;SDS011;11773;52.570;13.052;2022-09-12T11:31:24;0.50;;;0.50;;
23206;SDS011;11773;52.570;13.052;2022-09-12T11:34:09;0.30;;;0.30;;
23206;SDS011;11773;52.570;13.052;2022-09-12T11:36:46;0.40;;;0.40;;
23206;SDS011;11773;52.570;13.052;2022-09-12T11:39:37;0.30;;;0.30;;
23206;SDS011;11773;52.570;13.052;2022-09-12T11:42:10;0.30;;;0.30;;
23206;SDS011;11773;52.570;13.052;2022-09-12T11:44:58;0.40;;;0.40;;
23206;SDS011;11773;52.570;13.052;2022-09-12T11:47:20;0.40;;;0.40;;
23206;SDS011;11773;52.570;13.052;2022-09-12T11:49:54;0.30;;;0.30;;
23206;SDS011;11773;52.570;13.052;2022-09-12T11:52:28;0.50;;;0.50;;
23206;SDS011;11773;52.570;13.052;2022-09-12T11:57:42;0.40;;;0.40;;
23206;SDS011;11773;52.570;13.052;2022-09-12T12:00:38;0.40;;;0.40;;
23206;SDS011;11773;52.570;13.052;2022-09-12T12:08:47;0.50;;;0.50;;
23206;SDS011;11773;52.570;13.052;2022-09-12T12:11:31;0.33;;;0.33;;
23206;SDS011;11773;52.570;13.052;2022-09-12T12:14:21;0.30;;;0.30;;
23206;SDS011;11773;52.570;13.052;2022-09-12T12:16:53;0.33;;;0.33;;
23206;SDS011;11773;52.570;13.052;2022-09-12T12:19:34;0.40;;;0.40;;
23206;SDS011;11773;52.570;13.052;2022-09-12T12:22:24;0.40;;;0.40;;
23206;SDS011;11773;52.570;13.052;2022-09-12T12:24:54;0.40;;;0.40;;
23206;SDS011;11773;52.570;13.052;2022-09-12T12:27:53;0.30;;;0.30;;
23206;SDS011;11773;52.570;13.052;2022-09-12T12:30:57;0.50;;;0.50;;
23206;SDS011;11773;52.570;13.052;2022-09-12T12:35:42;0.40;;;0.40;;
23206;SDS011;11773;52.570;13.052;2022-09-12T12:38:30;0.40;;;0.40;;
23206;SDS011;11773;52.570;13.052;2022-09-12T12:43:51;0.37;;;0.37;;
23206;SDS011;11773;52.570;13.052;2022-09-12T12:46:24;0.30;;;0.30;;
23206;SDS011;11773;52.570;13.052;2022-09-12T12:51:53;0.30;;;0.30;;
23206;SDS011;11773;52.570;13.052;2022-09-12T12:54:25;0.50;;;0.50;;
23206;SDS011;11773;52.570;13.052;2022-09-12T12:57:02;0.40;;;0.40;;
23206;SDS011;11773;52.570;13.052;2022-09-12T12:59:46;0.60;;;0.60;;
23206;SDS011;11773;52.570;13.052;2022-09-12T13:02:20;0.30;;;0.30;;
23206;SDS011;11773;52.570;13.052;2022-09-12T13:04:56;0.50;;;0.50;;
23206;SDS011;11773;52.570;13.052;2022-09-12T13:07:34;0.53;;;0.50;;
23206;SDS011;11773;52.570;13.052;2022-09-12T13:10:06;0.47;;;0.47;;
23206;SDS011;11773;52.570;13.052;2022-09-12T13:12:44;0.40;;;0.40;;
23206;SDS011;11773;52.570;13.052;2022-09-12T13:15:50;0.40;;;0.40;;
23206;SDS011;11773;52.570;13.052;2022-09-12T13:18:10;0.53;;;0.53;;
23206;SDS011;11773;52.570;13.052;2022-09-12T13:20:56;0.30;;;0.30;;
23206;SDS011;11773;52.570;13.052;2022-09-12T13:23:36;0.20;;;0.20;;
23206;SDS011;11773;52.570;13.052;2022-09-12T13:26:12;0.50;;;0.50;;
23206;SDS011;11773;52.570;13.052;2022-09-12T13:31:45;0.57;;;0.57;;
23206;SDS011;11773;52.570;13.052;2022-09-12T13:34:28;0.30;;;0.30;;
23206;SDS011;11773;52.570;13.052;2022-09-12T13:37:13;0.40;;;0.40;;
23206;SDS011;11773;52.570;13.052;2022-09-12T13:42:43;0.40;;;0.40;;
23206;SDS011;11773;52.570;13.052;2022-09-12T13:45:19;0.30;;;0.30;;
23206;SDS011;11773;52.570;13.052;2022-09-12T13:47:56;0.40;;;0.40;;
23206;SDS011;11773;52.570;13.052;2022-09-12T13:50:38;0.30;;;0.30;;
23206;SDS011;11773;52.570;13.052;2022-09-12T13:53:14;0.40;;;0.40;;
23206;SDS011;11773;52.570;13.052;2022-09-12T13:55:48;0.30;;;0.30;;
23206;SDS011;11773;52.570;13.052;2022-09-12T13:58:24;0.30;;;0.30;;
23206;SDS011;11773;52.570;13.052;2022-09-12T14:01:10;0.27;;;0.27;;
23206;SDS011;11773;52.570;13.052;2022-09-12T14:03:51;0.50;;;0.50;;
23206;SDS011;11773;52.570;13.052;2022-09-12T14:09:24;0.30;;;0.30;;
23206;SDS011;11773;52.570;13.052;2022-09-12T14:12:18;0.27;;;0.27;;
23206;SDS011;11773;52.570;13.052;2022-09-12T14:14:48;0.40;;;0.40;;
23206;SDS011;11773;52.570;13.052;2022-09-12T14:17:27;0.30;;;0.30;;
23206;SDS011;11773;52.570;13.052;2022-09-12T14:20:04;0.40;;;0.40;;
23206;SDS011;11773;52.570;13.052;2022-09-12T14:22:44;0.30;;;0.30;;
23206;SDS011;11773;52.570;13.052;2022-09-12T14:25:17;0.27;;;0.27;;
23206;SDS011;11773;52.570;13.052;2022-09-12T14:27:51;0.30;;;0.30;;
23206;SDS011;11773;52.570;13.052;2022-09-12T14:30:24;0.30;;;0.30;;
23206;SDS011;11773;52.570;13.052;2022-09-12T14:35:46;0.40;;;0.40;;
23206;SDS011;11773;52.570;13.052;2022-09-12T14:38:22;0.43;;;0.43;;
23206;SDS011;11773;52.570;13.052;2022-09-12T14:40:59;0.30;;;0.30;;
23206;SDS011;11773;52.570;13.052;2022-09-12T14:43:32;0.37;;;0.37;;
23206;SDS011;11773;52.570;13.052;2022-09-12T14:46:16;0.40;;;0.40;;
23206;SDS011;11773;52.570;13.052;2022-09-12T14:48:54;0.40;;;0.40;;
23206;SDS011;11773;52.570;13.052;2022-09-12T14:51:44;0.27;;;0.27;;
23206;SDS011;11773;52.570;13.052;2022-09-12T14:57:01;0.50;;;0.50;;
23206;SDS011;11773;52.570;13.052;2022-09-12T15:00:03;0.30;;;0.30;;
23206;SDS011;11773;52.570;13.052;2022-09-12T15:02:40;0.43;;;0.43;;
23206;SDS011;11773;52.570;13.052;2022-09-12T15:10:30;0.40;;;0.40;;
23206;SDS011;11773;52.570;13.052;2022-09-12T15:15:46;0.40;;;0.40;;
23206;SDS011;11773;52.570;13.052;2022-09-12T15:18:23;0.33;;;0.33;;
23206;SDS011;11773;52.570;13.052;2022-09-12T15:20:56;0.40;;;0.40;;
23206;SDS011;11773;52.570;13.052;2022-09-12T15:23:33;0.30;;;0.30;;
23206;SDS011;11773;52.570;13.052;2022-09-12T15:26:12;0.40;;;0.40;;
23206;SDS011;11773;52.570;13.052;2022-09-12T15:28:49;0.33;;;0.33;;
23206;SDS011;11773;52.570;13.052;2022-09-12T15:31:25;0.43;;;0.30;;
23206;SDS011;11773;52.570;13.052;2022-09-12T15:33:59;0.30;;;0.30;;
23206;SDS011;11773;52.570;13.052;2022-09-12T15:36:30;0.40;;;0.40;;
23206;SDS011;11773;52.570;13.052;2022-09-12T15:38:59;0.40;;;0.40;;
23206;SDS011;11773;52.570;13.052;2022-09-12T15:41:32;0.30;;;0.30;;
23206;SDS011;11773;52.570;13.052;2022-09-12T15:44:04;0.30;;;0.30;;
23206;SDS011;11773;52.570;13.052;2022-09-12T15:46:36;0.50;;;0.50;;
23206;SDS011;11773;52.570;13.052;2022-09-12T15:49:06;0.33;;;0.33;;
23206;SDS011;11773;52.570;13.052;2022-09-12T15:51:36;0.53;;;0.37;;
23206;SDS011;11773;52.570;13.052;2022-09-12T15:54:06;0.47;;;0.30;;
23206;SDS011;11773;52.570;13.052;2022-09-12T15:56:38;0.23;;;0.23;;
23206;SDS011;11773;52.570;13.052;2022-09-12T15:59:08;0.37;;;0.37;;
23206;SDS011;11773;52.570;13.052;2022-09-12T16:01:38;0.40;;;0.40;;
23206;SDS011;11773;52.570;13.052;2022-09-12T16:04:20;0.70;;;0.70;;
23206;SDS011;11773;52.570;13.052;2022-09-12T16:06:52;0.40;;;0.40;;
23206;SDS011;11773;52.570;13.052;2022-09-12T16:09:23;0.30;;;0.30;;
23206;SDS011;11773;52.570;13.052;2022-09-12T16:11:53;0.27;;;0.27;;
23206;SDS011;11773;52.570;13.052;2022-09-12T16:14:22;0.50;;;0.40;;
23206;SDS011;11773;52.570;13.052;2022-09-12T16:16:52;0.40;;;0.40;;
23206;SDS011;11773;52.570;13.052;2022-09-12T16:19:25;0.40;;;0.40;;
23206;SDS011;11773;52.570;13.052;2022-09-12T16:21:54;0.60;;;0.60;;
23206;SDS011;11773;52.570;13.052;2022-09-12T16:24:24;0.30;;;0.30;;
23206;SDS011;11773;52.570;13.052;2022-09-12T16:26:53;0.20;;;0.20;;
23206;SDS011;11773;52.570;13.052;2022-09-12T16:29:25;0.30;;;0.30;;
23206;SDS011;11773;52.570;13.052;2022-09-12T16:31:54;0.33;;;0.33;;
23206;SDS011;11773;52.570;13.052;2022-09-12T16:34:23;0.60;;;0.50;;
23206;SDS011;11773;52.570;13.052;2022-09-12T16:36:53;0.30;;;0.30;;
23206;SDS011;11773;52.570;13.052;2022-09-12T16:39:22;0.40;;;0.40;;
23206;SDS011;11773;52.570;13.052;2022-09-12T16:41:52;0.40;;;0.40;;
23206;SDS011;11773;52.570;13.052;2022-09-12T16:44:21;0.50;;;0.50;;
23206;SDS011;11773;52.570;13.052;2022-09-12T16:46:51;0.30;;;0.30;;
23206;SDS011;11773;52.570;13.052;2022-09-12T16:49:20;0.40;;;0.40;;
23206;SDS011;11773;52.570;13.052;2022-09-12T16:51:50;0.30;;;0.30;;
23206;SDS011;11773;52.570;13.052;2022-09-12T16:54:19;0.30;;;0.30;;
23206;SDS011;11773;52.570;13.052;2022-09-12T16:56:49;0.30;;;0.30;;
23206;SDS011;11773;52.570;13.052;2022-09-12T16:59:19;0.40;;;0.40;;
23206;SDS011;11773;52.570;13.052;2022-09-12T17:01:48;0.33;;;0.33;;
23206;SDS011;11773;52.570;13.052;2022-09-12T17:04:18;0.30;;;0.30;;